Tiempo atmosférico en la estación meteorológica de Tarragona, Tarragona (60 m.)



Fecha
DESCASC
Temp. máxima en grados centígrados (hora)
DESCASC
Temp. mínima en grados centígrados (hora)
DESCASC
Temp. media en grados centígrados
DESCASC
Racha de viento máxima en m/sg (hora)
DESCASC
Velocidad máxima media en intervalos de 10 minutos(hora)
DESCASC
Precipitaciones diarias en mm
DESCASC
Precipitaciones de 00:00 a 06:00 en mm
DESCASC
Precipitaciones de 06:00 a 12:00 en mm
DESCASC
Precipitaciones de 12:00 a 18:00 en mm
DESCASC
Precipitaciones de 18:00 a 24:00 en mm
DESCASC
22-04-2019 17.9 (12:50) 12.8 (06:30) 15.3 -- (--) -- (--) 6.4 0.4 0.2 0 5.8
21-04-2019 18.3 (14:20) 12.7 (00:00) 15.5 -- (--) -- (--) 0 0 0 0 0
20-04-2019 19.8 (13:20) 12 (21:20) 15.9 -- (--) -- (--) 2.4 0 0 0.6 1.8
19-04-2019 20.6 (15:00) 15.2 (05:50) 17.9 -- (--) -- (--) 0 0 0 0 0
18-04-2019 20.8 (14:40) 12.7 (00:00) 16.7 -- (--) -- (--) 0 0 0 0 0
17-04-2019 17.7 (15:00) 10.3 (00:00) 14 -- (--) -- (--) 0 0 0 0 0
16-04-2019 18 (16:20) 10.9 (00:00) 14.4 -- (--) -- (--) 0 0 0 0 0
15-04-2019 16.4 (11:50) 10.5 (00:00) 13.4 -- (--) -- (--) 0 0 0 0 0
14-04-2019 17.5 (14:00) 8.4 (00:00) 12.9 -- (--) -- (--) 0 0 0 0 0
13-04-2019 21.3 (15:40) 8.2 (00:00) 14.7 -- (--) -- (--) 0 0 0 0 0
12-04-2019 23.7 (16:20) 9 (00:00) 16.4 -- (--) -- (--) 0 0 0 0 0
11-04-2019 23.6 (17:20) 8.1 (00:00) 15.9 -- (--) -- (--) 0 0 0 0 0
10-04-2019 22.3 (15:20) 9.9 (00:00) 16.1 -- (--) -- (--) 0.4 0 0 0 0.4
09-04-2019 22 (14:30) 10.5 (00:00) 16.3 -- (--) -- (--) 1.4 0 0.2 0 1.2
08-04-2019 23.2 (16:00) 7.8 (00:00) 15.5 -- (--) -- (--) 8.8 0 0 0 8.8
07-04-2019 21.4 (17:30) 6.7 (00:00) 14 -- (--) -- (--) 0 0 0 0 0
06-04-2019 18.2 (13:50) 7.7 (00:00) 13 -- (--) -- (--) 3.8 3.8 0 0 0
05-04-2019 16.9 (14:10) 7.7 (00:00) 12.3 -- (--) -- (--) 5.2 0 0 0 5.2
04-04-2019 18.8 (16:20) 6.8 (00:00) 12.8 -- (--) -- (--) 0 0 0 0 0
03-04-2019 19 (14:20) 9.8 (23:20) 14.4 -- (--) -- (--) 1.8 0 0 0.4 1.4
02-04-2019 18.9 (13:50) 11.2 (00:00) 15 -- (--) -- (--) 0 0 0 0 0
01-04-2019 17.7 (12:30) 11.7 (00:00) 14.7 -- (--) -- (--) 0 0 0 0 0
31-03-2019 15.7 (14:10) 8.8 (00:00) 12.3 -- (--) -- (--) 0 0 0 0 0
30-03-2019 16.5 (15:10) 6.5 (00:00) 11.5 -- (--) -- (--) 0 0 0 0 0
29-03-2019 16.9 (16:20) 6.6 (00:00) 11.7 -- (--) -- (--) 0 0 0 0 0
28-03-2019 18.9 (11:40) 6.4 (00:00) 12.6 -- (--) -- (--) 0 0 0 0 0
27-03-2019 18.7 (12:40) 6.8 (00:00) 12.8 -- (--) -- (--) 0 0 0 0 0
26-03-2019 21.1 (12:30) 7.8 (00:00) 14.5 -- (--) -- (--) 0 0 0 0 0
25-03-2019 24.4 (16:10) 10.3 (00:00) 17.3 -- (--) -- (--) 0 0 0 0 0

Gráficas

Temp. máximas Temp. mínimas Temp. medias Precipitaciones Rachas de viento máximas Velocidades máximas media en intervalos de 10 minutos

Datos horarios

Fecha y hora oficial Temperatura (ºC) Velocidad del viento (km/h) Dirección del viento Racha (km/h) Dirección de racha Precipitación (mm) Presión (hPa) Tendencia (hPa) Humedad (%)
2019-04-23 23:00:00 15.6 5 Sur 15 Sur 0 -- -- 76
2019-04-23 22:00:00 15.2 4 Este 13 Este 0 -- -- 84
2019-04-23 21:00:00 15.6 4 Este 14 Este 0 -- -- 82
2019-04-23 20:00:00 15.9 4 Nordeste 15 Este 0 -- -- 80
2019-04-23 19:00:00 16.8 10 Sudeste 17 Sudeste 0 -- -- 80
2019-04-23 18:00:00 17.3 10 Sudeste 18 Sudeste 0 -- -- 78
2019-04-23 17:00:00 17.3 11 Sur 19 Sudeste 0 -- -- 78
2019-04-23 16:00:00 17.3 10 Sudeste 20 Sudeste 0 -- -- 77
2019-04-23 15:00:00 17.8 9 Sudeste 19 Sudeste 0 -- -- 70
2019-04-23 14:00:00 17.8 11 Sudeste 21 Sudeste 0 -- -- 65
2019-04-23 13:00:00 17.8 8 Sur 16 Sudoeste 0 -- -- 71
2019-04-23 12:00:00 17 9 Sudeste 15 Sudeste 0 -- -- 77
2019-04-23 11:00:00 16.1 5 Sudoeste 12 Sur 0 -- -- 76
2019-04-23 10:00:00 14.6 3 Sudoeste 6 Este 0 -- -- 86
2019-04-23 09:00:00 13.9 2 Sur 4 Sudeste 0 -- -- 91
2019-04-23 08:00:00 12.9 0 Calma 5 Sudoeste 0 -- -- 93
2019-04-23 07:00:00 12.8 0 Calma 5 Sudoeste 0 -- -- 93
2019-04-23 06:00:00 13 2 Noroeste 5 Noroeste 0 -- -- 93
2019-04-23 05:00:00 13 0 Calma 5 Noroeste 0 -- -- 93
2019-04-23 04:00:00 12.9 2 Oeste 6 Noroeste 0 -- -- 93
2019-04-23 03:00:00 13 3 Noroeste 6 Noroeste 0 -- -- 93
2019-04-23 02:00:00 12.9 0 Calma 8 Norte 0 -- -- 92
2019-04-23 01:00:00 13 2 Noroeste 10 Noroeste 0 -- -- 93
2019-04-23 00:00:00 13.1 3 Noroeste 11 Oeste 0.2 -- -- 93
2019-04-22 23:00:00 13.2 3 Noroeste 12 Oeste 0.2 -- -- 93
2019-04-22 22:00:00 13.1 4 Oeste 10 Oeste 3.4 -- -- 90
2019-04-22 21:00:00 13.8 4 Norte 8 Norte 1.4 -- -- 87
2019-04-22 20:00:00 14.5 0 Calma 10 Este 0.2 -- -- 84
2019-04-22 19:00:00 15.4 6 Este 12 Sudeste 0.4 -- -- 79
2019-04-22 18:00:00 16.9 3 Norte 15 Noroeste 0 -- -- 72
2019-04-22 17:00:00 16.4 5 Norte 23 Nordeste 0 -- -- 68
2019-04-22 16:00:00 16.9 4 Nordeste 22 Este 0 -- -- 64
2019-04-22 15:00:00 16.4 5 Sudeste 10 Este 0 -- -- 71
2019-04-22 14:00:00 17 3 Sur 19 Este 0 -- -- 62
2019-04-22 13:00:00 17.9 7 Este 19 Este 0 -- -- 55
2019-04-22 12:00:00 17.5 5 Noroeste 13 Norte 0 -- -- 57
2019-04-22 11:00:00 16.1 3 Nordeste 26 Nordeste 0 -- -- 59
2019-04-22 10:00:00 15.6 4 Nordeste 15 Nordeste 0 -- -- 62
2019-04-22 09:00:00 14.3 2 Este 9 Sudeste 0 -- -- 75
2019-04-22 08:00:00 13.2 2 Noroeste 9 Norte 0 -- -- 83
2019-04-22 07:00:00 13 0 Calma 10 Este 0.2 -- -- 78
2019-04-22 06:00:00 13.7 4 Norte 10 Sudeste 0.4 -- -- 75
2019-04-22 05:00:00 14.8 3 Norte 13 Norte 0 -- -- 56
2019-04-22 04:00:00 15 5 Norte 18 Norte 0 -- -- 54
2019-04-22 03:00:00 14.8 6 Norte 18 Norte 0 -- -- 57
2019-04-22 02:00:00 15.2 4 Norte 14 Nordeste 0 -- -- 58
2019-04-22 01:00:00 15.5 2 Norte 15 Este 0 -- -- 60
2019-04-22 00:00:00 15.5 5 Nordeste 22 Norte 0 -- -- 60
2019-04-21 23:00:00 15.6 2 Nordeste 11 Norte 0 -- -- 62
2019-04-21 22:00:00 15.3 4 Noroeste 6 Noroeste 0 -- -- 75
2019-04-21 21:00:00 15.6 3 Este 15 Nordeste 0 -- -- 74
2019-04-21 20:00:00 15.9 6 Este 21 Este 0 -- -- 72
2019-04-21 19:00:00 16.2 8 Este 25 Este 0 -- -- 71
2019-04-21 18:00:00 16.6 9 Este 26 Este 0 -- -- 66
2019-04-21 17:00:00 17.5 12 Este 27 Este 0 -- -- 58
2019-04-21 16:00:00 16.9 12 Este 31 Este 0 -- -- 63
2019-04-21 15:00:00 17.4 9 Este 26 Sudeste 0 -- -- 58
2019-04-21 14:00:00 17.3 8 Este 29 Este 0 -- -- 57
2019-04-21 13:00:00 17.4 10 Este 36 Este 0 -- -- 54
2019-04-21 12:00:00 17.4 13 Este 28 Este 0 -- -- 58
2019-04-21 11:00:00 18 12 Este 28 Sudeste 0 -- -- 50
2019-04-21 10:00:00 15.4 6 Norte 19 Norte 0 -- -- 61
2019-04-21 09:00:00 14.2 6 Norte 13 Norte 0 -- -- 64
2019-04-21 08:00:00 14 5 Norte 17 Norte 0 -- -- 63
2019-04-21 07:00:00 13.8 7 Norte 19 Norte 0 -- -- 64
2019-04-21 06:00:00 14 7 Norte 29 Norte 0 -- -- 61
2019-04-21 05:00:00 13.6 9 Norte 25 Noroeste 0 -- -- 63
2019-04-21 04:00:00 12.8 9 Norte 29 Norte 0 -- -- 70
2019-04-21 03:00:00 13.1 10 Norte 36 Norte 0 -- -- 66
2019-04-21 02:00:00 13 13 Norte 37 Noroeste 0 -- -- 68
2019-04-21 01:00:00 13 12 Norte 36 Noroeste 0 -- -- 68
2019-04-21 00:00:00 12.7 13 Norte 31 Norte 0 -- -- 73
2019-04-20 23:00:00 12.3 14 Norte 33 Nordeste 0 -- -- 76
2019-04-20 22:00:00 12.1 13 Norte 31 Noroeste 0.2 -- -- 80
2019-04-20 21:00:00 12.1 10 Norte 26 Norte 0.6 -- -- 80
2019-04-20 20:00:00 13.9 5 Norte 27 Nordeste 0.6 -- -- 73
2019-04-20 19:00:00 14.3 8 Norte 21 Norte 0.4 -- -- 66
2019-04-20 18:00:00 15.2 6 Norte 17 Nordeste 0.4 -- -- 71
2019-04-20 17:00:00 17.3 5 Nordeste 29 Nordeste 0.2 -- -- 57
2019-04-20 16:00:00 19.3 10 Este 35 Este 0 -- -- 42
2019-04-20 15:00:00 19.6 10 Nordeste 40 Este 0 -- -- 39
2019-04-20 14:00:00 19.6 12 Este 40 Sudeste 0 -- -- 36
2019-04-20 13:00:00 18.9 10 Este 24 Sudeste 0 -- -- 41
2019-04-20 12:00:00 18.3 9 Este 24 Nordeste 0 -- -- 52
2019-04-20 11:00:00 18.4 6 Nordeste 24 Nordeste 0 -- -- 43
2019-04-20 10:00:00 18 6 Nordeste 21 Norte 0 -- -- 42
2019-04-20 09:00:00 17.5 9 Nordeste 27 Nordeste 0 -- -- 42
2019-04-20 08:00:00 17.1 5 Nordeste 23 Este 0 -- -- 44
2019-04-20 07:00:00 16.8 9 Nordeste 24 Nordeste 0 -- -- 44
2019-04-20 06:00:00 16 6 Nordeste 18 Norte 0 -- -- 47
2019-04-20 05:00:00 15.4 5 Norte 16 Norte 0 -- -- 49
2019-04-20 04:00:00 15.5 5 Nordeste 20 Nordeste 0 -- -- 50
2019-04-20 03:00:00 15.7 5 Nordeste 21 Nordeste 0 -- -- 50
2019-04-20 02:00:00 16.1 5 Nordeste 21 Nordeste 0 -- -- 51
2019-04-20 01:00:00 16.8 7 Nordeste 20 Este 0 -- -- 47
2019-04-20 00:00:00 17.1 6 Nordeste 22 Nordeste 0 -- -- 46
2019-04-19 23:00:00 17.5 6 Nordeste 20 Nordeste 0 -- -- 47
2019-04-19 22:00:00 17.5 5 Nordeste 19 Este 0 -- -- 53
2019-04-19 21:00:00 18.2 8 Este 35 Este 0 -- -- 51
2019-04-19 20:00:00 18.9 9 Este 29 Este 0 -- -- 48
2019-04-19 19:00:00 18.6 15 Este 41 Este 0 -- -- 52
2019-04-19 18:00:00 18.3 15 Este 36 Este 0 -- -- 56
2019-04-19 17:00:00 19.1 16 Este 52 Este 0 -- -- 56
2019-04-19 16:00:00 20 18 Este 46 Este 0 -- -- 47
2019-04-19 15:00:00 20.6 17 Sudeste 46 Este 0 -- -- 49
2019-04-19 14:00:00 19.7 19 Este 44 Este 0 -- -- 53
2019-04-19 13:00:00 20.3 18 Este 45 Este 0 -- -- 45
2019-04-19 12:00:00 20.3 20 Este 39 Este 0 -- -- 48
2019-04-19 11:00:00 19.6 15 Este 35 Este 0 -- -- 51
2019-04-19 10:00:00 17.7 13 Este 30 Este 0 -- -- 55
2019-04-19 09:00:00 16.5 11 Este 31 Sudeste 0 -- -- 58
2019-04-19 08:00:00 15.4 8 Nordeste 24 Nordeste 0 -- -- 62
2019-04-19 07:00:00 15.2 7 Este 25 Este 0 -- -- 63
2019-04-19 06:00:00 15.2 7 Este 28 Nordeste 0 -- -- 63
2019-04-19 05:00:00 15.4 8 Nordeste 26 Este 0 -- -- 63
2019-04-19 04:00:00 15.9 9 Este 27 Este 0 -- -- 60
2019-04-19 03:00:00 15.8 7 Este 19 Este 0 -- -- 58
2019-04-19 02:00:00 16 5 Nordeste 25 Este 0 -- -- 58
2019-04-19 01:00:00 16.3 8 Este 36 Este 0 -- -- 58
2019-04-19 00:00:00 16 13 Este 32 Este 0 -- -- 61
2019-04-18 23:00:00 16.3 10 Este 26 Este 0 -- -- 61
2019-04-18 22:00:00 16.4 8 Este 28 Este 0 -- -- 57
2019-04-18 21:00:00 17 11 Este 35 Este 0 -- -- 58
2019-04-18 20:00:00 17.8 8 Este 35 Este 0 -- -- 57
2019-04-18 19:00:00 18.7 13 Este 35 Este 0 -- -- 56
2019-04-18 18:00:00 19 14 Este 39 Sudeste 0 -- -- 53
2019-04-18 17:00:00 19.3 15 Este 53 Sudeste 0 -- -- 58
2019-04-18 16:00:00 18.6 22 Este 54 Este 0 -- -- 52
2019-04-18 15:00:00 19.3 17 Este 38 Este 0 -- -- 56
2019-04-18 14:00:00 19.8 17 Este 40 Este 0 -- -- 42
2019-04-18 13:00:00 17.9 12 Este 31 Este 0 -- -- 51
2019-04-18 12:00:00 16.5 8 Nordeste 32 Nordeste 0 -- -- 57
2019-04-18 11:00:00 15 8 Nordeste 18 Norte 0 -- -- 67
2019-04-18 10:00:00 14.2 6 Este 19 Nordeste 0 -- -- 72
2019-04-18 09:00:00 13.6 3 Nordeste 12 Nordeste 0 -- -- 77
2019-04-18 08:00:00 12.8 0 Calma 6 Este 0 -- -- 80
2019-04-18 07:00:00 12.7 2 Nordeste 9 Este 0 -- -- 83
2019-04-18 06:00:00 12.8 3 Nordeste 12 Nordeste 0 -- -- 85
2019-04-18 05:00:00 12.9 3 Norte 6 Norte 0 -- -- 84
2019-04-18 04:00:00 13.1 0 Calma 5 Norte 0 -- -- 83
2019-04-18 03:00:00 13.7 0 Calma 10 Nordeste 0 -- -- 82
2019-04-18 02:00:00 13.9 4 Nordeste 13 Este 0 -- -- 82
2019-04-18 01:00:00 14.1 4 Este 14 Este 0 -- -- 83
2019-04-18 00:00:00 14.7 3 Este 17 Este 0 -- -- 83
2019-04-17 23:00:00 14.6 6 Este 20 Este 0 -- -- 84
2019-04-17 22:00:00 14.7 9 Este 21 Este 0 -- -- 84
2019-04-17 21:00:00 14.6 5 Este 16 Este 0 -- -- 83
2019-04-17 20:00:00 15.2 6 Este 18 Este 0 -- -- 80
2019-04-17 19:00:00 15.4 9 Sudeste 21 Sudeste 0 -- -- 77
2019-04-17 18:00:00 16.6 11 Sudeste 22 Este 0 -- -- 70
2019-04-17 17:00:00 16.8 12 Este 25 Este 0 -- -- 69
2019-04-17 16:00:00 16.9 13 Sudeste 23 Este 0 -- -- 67
2019-04-17 15:00:00 17.7 11 Sudeste 23 Este 0 -- -- 64
2019-04-17 14:00:00 17 13 Este 22 Este 0 -- -- 67
2019-04-17 13:00:00 16.2 9 Este 20 Este 0 -- -- 68
2019-04-17 12:00:00 15.8 8 Sudeste 16 Este 0 -- -- 69
2019-04-17 11:00:00 14.8 8 Sudeste 15 Sudeste 0 -- -- 73
2019-04-17 10:00:00 13.6 5 Este 14 Este 0 -- -- 84
2019-04-17 09:00:00 12.5 2 Este 6 Este 0 -- -- 90
2019-04-17 08:00:00 10.6 0 Calma 6 Este 0 -- -- 93
2019-04-17 07:00:00 10.5 0 Calma 5 Sudeste 0 -- -- 91
2019-04-17 06:00:00 10.9 0 Calma 8 Nordeste 0 -- -- 92
2019-04-17 05:00:00 11.2 3 Norte 8 Noroeste 0 -- -- 93
2019-04-17 04:00:00 11 4 Noroeste 10 Noroeste 0 -- -- 92
2019-04-17 03:00:00 11.4 0 Calma 3 Este 0 -- -- 91
2019-04-17 02:00:00 12 0 Calma 4 Sudeste 0 -- -- 90
2019-04-17 01:00:00 12.7 0 Calma 7 Este 0 -- -- 87
2019-04-17 00:00:00 13.5 3 Este 10 Sudeste 0 -- -- 84
2019-04-16 23:00:00 14 4 Este 9 Sudeste 0 -- -- 85
2019-04-16 22:00:00 14.5 2 Este 8 Este 0 -- -- 82
2019-04-16 21:00:00 14.5 2 Este 9 Este 0 -- -- 82
2019-04-16 20:00:00 15.1 5 Este 15 Este 0 -- -- 79
2019-04-16 19:00:00 15.8 8 Este 17 Sudeste 0 -- -- 77
2019-04-16 18:00:00 16.3 8 Sudeste 22 Este 0 -- -- 75
2019-04-16 17:00:00 17.6 11 Sudeste 25 Sudeste 0 -- -- 67
2019-04-16 16:00:00 17.5 12 Sudeste 24 Sudeste 0 -- -- 68
2019-04-16 15:00:00 16.6 13 Sudeste 20 Sudeste 0 -- -- 72
2019-04-16 14:00:00 17 12 Sudeste 21 Este 0 -- -- 67
2019-04-16 13:00:00 16.5 12 Sudeste 21 Sudeste 0 -- -- 69
2019-04-16 12:00:00 16.6 12 Sudeste 19 Sudeste 0 -- -- 60
2019-04-16 11:00:00 16.4 7 Sudeste 11 Sudeste 0 -- -- 54
2019-04-16 10:00:00 15 2 Sudeste 6 Sudeste 0 -- -- 54
2019-04-16 09:00:00 13.4 3 Norte 13 Norte 0 -- -- 65
2019-04-16 08:00:00 12.6 4 Norte 11 Noroeste 0 -- -- 66
2019-04-16 07:00:00 12.5 2 Norte 6 Noroeste 0 -- -- 67
2019-04-16 06:00:00 12.2 2 Norte 9 Norte 0 -- -- 68
2019-04-16 05:00:00 11.4 0 Calma 6 Nordeste 0 -- -- 71
2019-04-16 04:00:00 11.5 0 Calma 10 Norte 0 -- -- 69
2019-04-16 03:00:00 11.4 4 Norte 9 Norte 0 -- -- 70
2019-04-16 02:00:00 11.3 3 Noroeste 7 Norte 0 -- -- 70
2019-04-16 01:00:00 12.1 3 Nordeste 9 Norte 0 -- -- 69
2019-04-16 00:00:00 12.6 3 Norte 10 Este 0 -- -- 69
2019-04-15 23:00:00 13 5 Este 15 Este 0 -- -- 67
2019-04-15 22:00:00 13.4 7 Este 18 Este 0 -- -- 66
2019-04-15 21:00:00 13.7 8 Este 22 Este 0 -- -- 71
2019-04-15 20:00:00 14.3 12 Sudeste 23 Sudeste 0 -- -- 68
2019-04-15 19:00:00 14.8 13 Sudeste 25 Este 0 -- -- 66
2019-04-15 18:00:00 15.4 13 Sudeste 26 Este 0 -- -- 63
2019-04-15 17:00:00 15.6 13 Sudeste 25 Sudeste 0 -- -- 61
2019-04-15 16:00:00 16 13 Este 26 Este 0 -- -- 61
2019-04-15 15:00:00 16.1 13 Este 26 Este 0 -- -- 63
2019-04-15 14:00:00 15.9 15 Sudeste 26 Este 0 -- -- 62
2019-04-15 13:00:00 16 13 Sudeste 26 Este 0 -- -- 59
2019-04-15 12:00:00 16.2 13 Sudeste 27 Este 0 -- -- 55
2019-04-15 11:00:00 15.8 12 Sudeste 23 Sudeste 0 -- -- 64
2019-04-15 10:00:00 15.4 11 Este 23 Este 0 -- -- 70
2019-04-15 09:00:00 13.8 7 Este 17 Este 0 -- -- 72
2019-04-15 08:00:00 10.6 0 Calma 4 Noroeste 0 -- -- 83
2019-04-15 07:00:00 10.7 0 Calma 4 Norte 0 -- -- 83
2019-04-15 06:00:00 11.6 2 Norte 8 Norte 0 -- -- 81
2019-04-15 05:00:00 11.9 4 Norte 12 Norte 0 -- -- 81
2019-04-15 04:00:00 12.2 5 Norte 13 Norte 0 -- -- 84
2019-04-15 03:00:00 12.5 5 Noroeste 10 Noroeste 0 -- -- 85
2019-04-15 02:00:00 12.7 2 Norte 8 Nordeste 0 -- -- 87
2019-04-15 01:00:00 12.8 3 Nordeste 10 Nordeste 0 -- -- 87
2019-04-15 00:00:00 13 0 Calma 8 Este 0 -- -- 86
2019-04-14 23:00:00 13.4 4 Este 10 Este 0 -- -- 85
2019-04-14 22:00:00 13.5 3 Este 10 Este 0 -- -- 85
2019-04-14 21:00:00 14 4 Este 14 Este 0 -- -- 83
2019-04-14 20:00:00 14.7 7 Sudeste 18 Sudeste 0 -- -- 80
2019-04-14 19:00:00 15.2 9 Sudeste 21 Este 0 -- -- 77
2019-04-14 18:00:00 16.2 12 Este 27 Sudeste 0 -- -- 74
2019-04-14 17:00:00 16.1 17 Sudeste 30 Sudeste 0 -- -- 76
2019-04-14 16:00:00 16.5 15 Sudeste 28 Este 0 -- -- 76
2019-04-14 15:00:00 16.2 14 Este 28 Este 0 -- -- 77
2019-04-14 14:00:00 17.5 15 Este 29 Este 0 -- -- 70
2019-04-14 13:00:00 16.5 13 Sudeste 28 Este 0 -- -- 69
2019-04-14 12:00:00 16.8 13 Sudeste 24 Sudeste 0 -- -- 62
2019-04-14 11:00:00 16.4 10 Este 21 Sudeste 0 -- -- 67
2019-04-14 10:00:00 15.2 9 Sudeste 15 Sudeste 0 -- -- 61
2019-04-14 09:00:00 13.1 5 Este 10 Este 0 -- -- 78
2019-04-14 08:00:00 10.1 4 Este 7 Este 0 -- -- 95
2019-04-14 07:00:00 8.7 0 Calma 4 Norte 0 -- -- 93
2019-04-14 06:00:00 8.7 2 Norte 4 Este 0 -- -- 92
2019-04-14 05:00:00 8.8 0 Calma 4 Este 0 -- -- 91
2019-04-14 04:00:00 8.8 0 Calma 4 Noroeste 0 -- -- 90
2019-04-14 03:00:00 9.3 0 Calma 5 Noroeste 0 -- -- 87
2019-04-14 02:00:00 10.8 3 Este 5 Este 0 -- -- 86
2019-04-14 01:00:00 11.3 3 Sudeste 5 Este 0 -- -- 83
2019-04-14 00:00:00 12.3 0 Calma 7 Este 0 -- -- 79
2019-04-13 23:00:00 13.3 2 Este 8 Sudeste 0 -- -- 76
2019-04-13 22:00:00 14.5 3 Este 10 Sudeste 0 -- -- 71
2019-04-13 21:00:00 14.8 2 Norte 9 Sudeste 0 -- -- 70
2019-04-13 20:00:00 15.8 4 Sur 18 Sudoeste 0 -- -- 69
2019-04-13 19:00:00 17 6 Sur 22 Sudoeste 0 -- -- 60
2019-04-13 18:00:00 17.7 10 Sudoeste 24 Oeste 0 -- -- 59
2019-04-13 17:00:00 18.7 12 Sudoeste 26 Sudoeste 0 -- -- 47
2019-04-13 16:00:00 21.3 10 Sudoeste 20 Sudoeste 0 -- -- 36
2019-04-13 15:00:00 20.9 10 Sudoeste 19 Sudoeste 0 -- -- 33
2019-04-13 14:00:00 20.4 10 Sudoeste 21 Sudoeste 0 -- -- 37
2019-04-13 13:00:00 19.8 10 Sudeste 19 Este 0 -- -- 39
2019-04-13 12:00:00 19 8 Sudeste 15 Sudeste 0 -- -- 39
2019-04-13 11:00:00 17.3 2 Sudeste 12 Noroeste 0 -- -- 40
2019-04-13 10:00:00 14.9 2 Norte 8 Oeste 0 -- -- 48
2019-04-13 09:00:00 11.9 4 Norte 12 Norte 0 -- -- 58
2019-04-13 08:00:00 8.5 4 Norte 10 Norte 0 -- -- 71
2019-04-13 07:00:00 9.2 3 Noroeste 10 Norte 0 -- -- 76
2019-04-13 06:00:00 9.9 6 Norte 12 Noroeste 0 -- -- 80
2019-04-13 05:00:00 10.4 4 Norte 13 Norte 0 -- -- 78
2019-04-13 04:00:00 10.8 5 Norte 13 Norte 0 -- -- 83
2019-04-13 03:00:00 10.7 4 Norte 12 Norte 0 -- -- 86
2019-04-13 02:00:00 11.7 4 Norte 12 Nordeste 0 -- -- 86
2019-04-13 01:00:00 12 3 Nordeste 10 Norte 0 -- -- 86
2019-04-13 00:00:00 12.7 3 Norte 9 Este 0 -- -- 85
2019-04-12 23:00:00 13.5 3 Este 13 Este 0 -- -- 83
2019-04-12 22:00:00 14.1 3 Este 13 Este 0 -- -- 73
2019-04-12 21:00:00 15.5 4 Sur 17 Sudoeste 0 -- -- 60
2019-04-12 20:00:00 16.6 8 Sudoeste 23 Sudoeste 0 -- -- 60
2019-04-12 19:00:00 17.6 10 Sudoeste 24 Sudoeste 0 -- -- 56
2019-04-12 18:00:00 18 5 Sudoeste 30 Sudoeste 0 -- -- 61
2019-04-12 17:00:00 19.8 11 Sur 27 Sudoeste 0 -- -- 51
2019-04-12 16:00:00 23.4 9 Oeste 27 Sudoeste 0 -- -- 30
2019-04-12 15:00:00 22.5 11 Oeste 32 Oeste 0 -- -- 32
2019-04-12 14:00:00 22.1 11 Oeste 28 Oeste 0 -- -- 33
2019-04-12 13:00:00 21 8 Oeste 23 Oeste 0 -- -- 38
2019-04-12 12:00:00 19.8 9 Noroeste 27 Noroeste 0 -- -- 39
2019-04-12 11:00:00 17.6 8 Noroeste 19 Noroeste 0 -- -- 45
2019-04-12 10:00:00 15.8 6 Noroeste 12 Noroeste 0 -- -- 49
2019-04-12 09:00:00 13.3 4 Noroeste 9 Noroeste 0 -- -- 60
2019-04-12 08:00:00 9.3 3 Noroeste 7 Noroeste 0 -- -- 71
2019-04-12 07:00:00 9.5 2 Noroeste 15 Noroeste 0 -- -- 69
2019-04-12 06:00:00 10.4 5 Noroeste 17 Noroeste 0 -- -- 65
2019-04-12 05:00:00 11.3 8 Noroeste 19 Noroeste 0 -- -- 60
2019-04-12 04:00:00 12 7 Noroeste 25 Noroeste 0 -- -- 57
2019-04-12 03:00:00 12.4 7 Noroeste 21 Noroeste 0 -- -- 59
2019-04-12 02:00:00 12.7 9 Noroeste 19 Noroeste 0 -- -- 57
2019-04-12 01:00:00 13.4 8 Noroeste 25 Noroeste 0 -- -- 53
2019-04-12 00:00:00 14.6 8 Noroeste 22 Noroeste 0 -- -- 51
2019-04-11 23:00:00 15.5 8 Noroeste 26 Noroeste 0 -- -- 50
2019-04-11 22:00:00 15.9 5 Sur 19 Este 0 -- -- 60
2019-04-11 21:00:00 16.2 6 Este 26 Sudeste 0 -- -- 59
2019-04-11 20:00:00 20.7 8 Noroeste 20 Noroeste 0 -- -- 35
2019-04-11 19:00:00 22 6 Noroeste 24 Noroeste 0 -- -- 26
2019-04-11 18:00:00 22.3 9 Noroeste 25 Noroeste 0 -- -- 24
2019-04-11 17:00:00 23.5 9 Norte 25 Norte 0 -- -- 21
2019-04-11 16:00:00 23.2 7 Oeste 27 Noroeste 0 -- -- 24
2019-04-11 15:00:00 23 10 Noroeste 31 Noroeste 0 -- -- 27
2019-04-11 14:00:00 22 12 Oeste 30 Noroeste 0 -- -- 33
2019-04-11 13:00:00 20.8 9 Noroeste 28 Noroeste 0 -- -- 37
2019-04-11 12:00:00 19.5 8 Oeste 19 Noroeste 0 -- -- 39
2019-04-11 11:00:00 16.7 3 Norte 12 Noroeste 0 -- -- 46
2019-04-11 10:00:00 15 5 Oeste 15 Noroeste 0 -- -- 50
2019-04-11 09:00:00 12.5 5 Noroeste 15 Noroeste 0 -- -- 63
2019-04-11 08:00:00 9.3 6 Noroeste 19 Noroeste 0 -- -- 72
2019-04-11 07:00:00 8.2 4 Noroeste 10 Oeste 0 -- -- 77
2019-04-11 06:00:00 8.8 3 Noroeste 12 Noroeste 0 -- -- 75
2019-04-11 05:00:00 9.6 4 Noroeste 14 Noroeste 0 -- -- 74
2019-04-11 04:00:00 10.5 6 Noroeste 24 Noroeste 0 -- -- 72
2019-04-11 03:00:00 9.3 3 Noroeste 11 Noroeste 0 -- -- 84
2019-04-11 02:00:00 10.5 5 Noroeste 10 Oeste 0 -- -- 76
2019-04-11 01:00:00 10.7 0 Calma 5 Noroeste 0 -- -- 86
2019-04-11 00:00:00 11.7 2 Noroeste 6 Este 0 -- -- 82
2019-04-10 23:00:00 12.4 2 Norte 6 Noroeste 0 -- -- 82
2019-04-10 22:00:00 13.2 2 Nordeste 8 Este 0 -- -- 81
2019-04-10 21:00:00 14.1 5 Este 14 Este 0.2 -- -- 82
2019-04-10 20:00:00 15.2 9 Sudeste 20 Este 0.2 -- -- 72
2019-04-10 19:00:00 17.2 7 Sur 18 Este 0 -- -- 57
2019-04-10 18:00:00 18.2 5 Sudeste 17 Este 0 -- -- 46
2019-04-10 17:00:00 19.6 9 Este 22 Noroeste 0 -- -- 42
2019-04-10 16:00:00 20.9 8 Oeste 21 Oeste 0 -- -- 38
2019-04-10 15:00:00 22.1 10 Noroeste 23 Oeste 0 -- -- 36
2019-04-10 14:00:00 19.4 5 Sudoeste 22 Sudoeste 0 -- -- 41
2019-04-10 13:00:00 19 9 Sudeste 17 Noroeste 0 -- -- 43
2019-04-10 12:00:00 18.7 6 Oeste 15 Noroeste 0 -- -- 46
2019-04-10 11:00:00 16.4 5 Sudoeste 12 Sudeste 0 -- -- 54
2019-04-10 10:00:00 15.1 3 Norte 9 Norte 0 -- -- 58
2019-04-10 09:00:00 13.1 0 Calma 5 Noroeste 0 -- -- 66
2019-04-10 08:00:00 10.1 0 Calma 8 Este 0 -- -- 81
2019-04-10 07:00:00 10.4 3 Noroeste 5 Norte 0 -- -- 80
2019-04-10 06:00:00 10.9 0 Calma 5 Oeste 0 -- -- 81
2019-04-10 05:00:00 11.4 3 Noroeste 11 Noroeste 0 -- -- 75
2019-04-10 04:00:00 11.7 7 Noroeste 19 Norte 0 -- -- 73
2019-04-10 03:00:00 11.4 3 Noroeste 8 Oeste 0 -- -- 78
2019-04-10 02:00:00 10.9 0 Calma 8 Noroeste 0 -- -- 83
2019-04-10 01:00:00 10.7 3 Oeste 7 Oeste 0 -- -- 82
2019-04-10 00:00:00 11.7 4 Noroeste 17 Nordeste 0 -- -- 76
2019-04-09 23:00:00 11.9 3 Este 12 Nordeste 1.2 -- -- 81
2019-04-09 22:00:00 13.5 3 Noroeste 21 Noroeste 0 -- -- 69
2019-04-09 21:00:00 13.8 5 Este 22 Sudeste 0 -- -- 59
2019-04-09 20:00:00 16.1 5 Sur 24 Oeste 0 -- -- 67
2019-04-09 19:00:00 17.3 11 Sudoeste 31 Sudoeste 0 -- -- 53
2019-04-09 18:00:00 18.2 10 Sudoeste 29 Sudoeste 0 -- -- 45
2019-04-09 17:00:00 18 13 Sudoeste 37 Sudoeste 0 -- -- 50
2019-04-09 16:00:00 20.5 14 Sudoeste 29 Sudoeste 0 -- -- 49
2019-04-09 15:00:00 20.8 8 Oeste 26 Oeste 0 -- -- 37
2019-04-09 14:00:00 21.3 9 Oeste 28 Noroeste 0 -- -- 38
2019-04-09 13:00:00 21 10 Oeste 27 Sudoeste 0 -- -- 40
2019-04-09 12:00:00 20.5 11 Noroeste 27 Noroeste 0 -- -- 42
2019-04-09 11:00:00 18.3 6 Noroeste 18 Sur 0.2 -- -- 49
2019-04-09 10:00:00 15.8 5 Sudoeste 9 Sur 0 -- -- 56
2019-04-09 09:00:00 13.5 3 Oeste 7 Oeste 0 -- -- 67
2019-04-09 08:00:00 10.8 2 Noroeste 18 Norte 0 -- -- 81
2019-04-09 07:00:00 11.1 4 Norte 12 Nordeste 0 -- -- 91
2019-04-09 06:00:00 10.6 3 Este 9 Este 0 -- -- 88
2019-04-09 05:00:00 10.9 0 Calma 5 Nordeste 0 -- -- 90
2019-04-09 04:00:00 10.5 3 Noroeste 5 Norte 0 -- -- 92
2019-04-09 03:00:00 10.7 5 Norte 12 Noroeste 0 -- -- 90
2019-04-09 02:00:00 11.6 4 Noroeste 7 Noroeste 0 -- -- 91
2019-04-09 01:00:00 12.3 2 Noroeste 8 Noroeste 0 -- -- 91
2019-04-09 00:00:00 12.8 2 Norte 29 Noroeste 6.8 -- -- 86
2019-04-08 23:00:00 14.5 15 Noroeste 37 Noroeste 2 -- -- 74
2019-04-08 22:00:00 15.8 5 Oeste 19 Noroeste 0 -- -- 63
2019-04-08 21:00:00 16 6 Oeste 25 Oeste 0 -- -- 62
2019-04-08 20:00:00 16.4 8 Sudoeste 20 Noroeste 0 -- -- 64
2019-04-08 19:00:00 17 10 Sudoeste 31 Oeste 0 -- -- 68
2019-04-08 18:00:00 17.6 13 Sudoeste 29 Oeste 0 -- -- 62
2019-04-08 17:00:00 19.2 10 Sudoeste 27 Sudoeste 0 -- -- 55
2019-04-08 16:00:00 23.2 7 Sudoeste 24 Noroeste 0 -- -- 44
2019-04-08 15:00:00 21.2 9 Noroeste 28 Oeste 0 -- -- 44
2019-04-08 14:00:00 20.4 8 Oeste 23 Norte 0 -- -- 47
2019-04-08 13:00:00 17.9 8 Sudeste 20 Sudeste 0 -- -- 54
2019-04-08 12:00:00 16.8 8 Sudeste 17 Sudeste 0 -- -- 60
2019-04-08 11:00:00 15.1 4 Sur 10 Sudoeste 0 -- -- 61
2019-04-08 10:00:00 13.3 3 Sudoeste 6 Noroeste 0 -- -- 60
2019-04-08 09:00:00 11.3 0 Calma 6 Noroeste 0 -- -- 67
2019-04-08 08:00:00 8.9 2 Norte 6 Nordeste 0 -- -- 72
2019-04-08 07:00:00 8.5 3 Noroeste 6 Noroeste 0 -- -- 77
2019-04-08 06:00:00 8.3 0 Calma 5 Noroeste 0 -- -- 80
2019-04-08 05:00:00 8.1 0 Calma 4 Noroeste 0 -- -- 80
2019-04-08 04:00:00 8.8 0 Calma 3 Noroeste 0 -- -- 77
2019-04-08 03:00:00 9.2 0 Calma 10 Noroeste 0 -- -- 74
2019-04-08 02:00:00 8.5 7 Noroeste 10 Noroeste 0 -- -- 81
2019-04-08 01:00:00 9.1 2 Noroeste 10 Norte 0 -- -- 76
2019-04-08 00:00:00 10.2 4 Noroeste 8 Norte 0 -- -- 73
2019-04-07 23:00:00 10.7 4 Norte 7 Noroeste 0 -- -- 74
2019-04-07 22:00:00 11.2 3 Norte 5 Norte 0 -- -- 73
2019-04-07 21:00:00 12.3 2 Norte 16 Este 0 -- -- 73
2019-04-07 20:00:00 13.3 7 Este 35 Este 0 -- -- 66
2019-04-07 19:00:00 14.3 14 Este 36 Este 0 -- -- 58
2019-04-07 18:00:00 19.2 9 Este 27 Este 0 -- -- 46
2019-04-07 17:00:00 20.7 10 Noroeste 30 Norte 0 -- -- 32
2019-04-07 16:00:00 18.3 12 Noroeste 30 Noroeste 0 -- -- 37
2019-04-07 15:00:00 18.9 8 Norte 27 Noroeste 0 -- -- 34
2019-04-07 14:00:00 19.2 8 Noroeste 26 Noroeste 0 -- -- 36
2019-04-07 13:00:00 17.9 14 Noroeste 30 Noroeste 0 -- -- 40
2019-04-07 12:00:00 17.3 9 Noroeste 23 Sudoeste 0 -- -- 43
2019-04-07 11:00:00 15 11 Noroeste 26 Noroeste 0 -- -- 52
2019-04-07 10:00:00 13.8 7 Noroeste 22 Noroeste 0 -- -- 56
2019-04-07 09:00:00 11.2 6 Noroeste 14 Noroeste 0 -- -- 65
2019-04-07 08:00:00 6.8 2 Noroeste 6 Noroeste 0 -- -- 80
2019-04-07 07:00:00 6.9 2 Norte 6 Noroeste 0 -- -- 80
2019-04-07 06:00:00 6.7 0 Calma 5 Norte 0 -- -- 80
2019-04-07 05:00:00 7.5 4 Noroeste 10 Noroeste 0 -- -- 77
2019-04-07 04:00:00 8.3 2 Noroeste 11 Norte 0 -- -- 74
2019-04-07 03:00:00 8.2 2 Noroeste 8 Noroeste 0 -- -- 73
2019-04-07 02:00:00 9.1 3 Norte 10 Norte 0 -- -- 69
2019-04-07 01:00:00 9.6 3 Norte 9 Norte 0 -- -- 67
2019-04-07 00:00:00 10.5 2 Oeste 6 Noroeste 0 -- -- 64
2019-04-06 23:00:00 12 2 Noroeste 14 Norte 0 -- -- 57
2019-04-06 22:00:00 12.3 5 Norte 18 Noroeste 0 -- -- 58
2019-04-06 21:00:00 13.2 9 Noroeste 20 Norte 0 -- -- 57
2019-04-06 20:00:00 14 5 Sur 16 Sur 0 -- -- 64
2019-04-06 19:00:00 14.6 8 Sur 25 Sur 0 -- -- 60
2019-04-06 18:00:00 15.1 9 Sur 25 Sur 0 -- -- 51
2019-04-06 17:00:00 14.8 12 Sudoeste 35 Sudoeste 0 -- -- 57
2019-04-06 16:00:00 16.2 9 Sur 26 Sudeste 0 -- -- 48
2019-04-06 15:00:00 16 11 Sudoeste 26 Sudeste 0 -- -- 44
2019-04-06 14:00:00 17.6 10 Oeste 37 Noroeste 0 -- -- 38
2019-04-06 13:00:00 17.1 14 Noroeste 33 Noroeste 0 -- -- 40
2019-04-06 12:00:00 15.8 11 Noroeste 33 Noroeste 0 -- -- 46
2019-04-06 11:00:00 13.8 7 Oeste 27 Noroeste 0 -- -- 52
2019-04-06 10:00:00 12.8 9 Oeste 24 Oeste 0 -- -- 57
2019-04-06 09:00:00 11.3 5 Oeste 21 Sudoeste 0 -- -- 62
2019-04-06 08:00:00 9.4 10 Oeste 26 Oeste 0 -- -- 67
2019-04-06 07:00:00 8.5 5 Oeste 21 Noroeste 0 -- -- 71
2019-04-06 06:00:00 8 3 Oeste 20 Nordeste 0 -- -- 78
2019-04-06 05:00:00 7.8 3 Norte 22 Norte 0 -- -- 84
2019-04-06 04:00:00 8.5 5 Noroeste 22 Noroeste 0 -- -- 83
2019-04-06 03:00:00 9.3 4 Oeste 21 Noroeste 3.6 -- -- 83
2019-04-06 02:00:00 11.5 3 Noroeste 12 Sudoeste 0 -- -- 87
2019-04-06 01:00:00 11.2 2 Sur 19 Sudoeste 0.2 -- -- 87
2019-04-06 00:00:00 11.2 2 Noroeste 11 Sudeste 1 -- -- 90
2019-04-05 23:00:00 11.7 3 Sudoeste 17 Sudoeste 2.6 -- -- 86
2019-04-05 22:00:00 12.1 5 Sudoeste 35 Sudoeste 1.6 -- -- 83
2019-04-05 21:00:00 14.3 7 Sur 23 Sur 0 -- -- 87
2019-04-05 20:00:00 14.5 12 Sudeste 21 Sur 0 -- -- 80
2019-04-05 19:00:00 14.8 10 Sudeste 21 Sudeste 0 -- -- 81
2019-04-05 18:00:00 15.7 10 Sudeste 18 Sur 0 -- -- 74
2019-04-05 17:00:00 16 9 Sudeste 22 Sudeste 0 -- -- 65
2019-04-05 16:00:00 16 14 Sudeste 22 Sudeste 0 -- -- 66
2019-04-05 15:00:00 16 11 Sur 24 Sudeste 0 -- -- 65
2019-04-05 14:00:00 16.6 10 Sur 25 Sudeste 0 -- -- 63
2019-04-05 13:00:00 16.4 12 Sudeste 22 Sudeste 0 -- -- 67
2019-04-05 12:00:00 15.7 9 Sudoeste 23 Sudoeste 0 -- -- 67
2019-04-05 11:00:00 15.2 12 Sudoeste 23 Sudoeste 0 -- -- 67
2019-04-05 10:00:00 14.1 8 Sur 20 Sudoeste 0 -- -- 72
2019-04-05 09:00:00 12.8 5 Sur 13 Sudoeste 0 -- -- 82
2019-04-05 08:00:00 10.6 3 Este 8 Este 0 -- -- 78
2019-04-05 07:00:00 9.2 3 Este 7 Nordeste 0 -- -- 79
2019-04-05 06:00:00 8.5 0 Calma 3 Este 0 -- -- 77
2019-04-05 05:00:00 8.4 0 Calma 3 Norte 0 -- -- 77
2019-04-05 04:00:00 7.7 0 Calma 4 Noroeste 0 -- -- 76
2019-04-05 03:00:00 8.1 0 Calma 4 Norte 0 -- -- 72
2019-04-05 02:00:00 8.2 0 Calma 5 Noroeste 0 -- -- 69
2019-04-05 01:00:00 8.7 0 Calma 7 Noroeste 0 -- -- 65
2019-04-05 00:00:00 10 4 Noroeste 12 Noroeste 0 -- -- 59
2019-04-04 23:00:00 11.3 5 Oeste 15 Oeste 0 -- -- 57
2019-04-04 22:00:00 11.6 5 Oeste 18 Oeste 0 -- -- 58
2019-04-04 21:00:00 12.1 7 Oeste 18 Oeste 0 -- -- 52
2019-04-04 20:00:00 13 9 Sudoeste 32 Sudoeste 0 -- -- 50
2019-04-04 19:00:00 14.7 13 Oeste 39 Oeste 0 -- -- 45
2019-04-04 18:00:00 18.2 8 Oeste 23 Oeste 0 -- -- 26
2019-04-04 17:00:00 18.8 8 Oeste 28 Norte 0 -- -- 25
2019-04-04 16:00:00 18.6 10 Noroeste 32 Noroeste 0 -- -- 26
2019-04-04 15:00:00 18 9 Oeste 35 Noroeste 0 -- -- 28
2019-04-04 14:00:00 16.2 5 Sudoeste 23 Sudeste 0 -- -- 29
2019-04-04 13:00:00 14.5 12 Sudeste 21 Sudeste 0 -- -- 35
2019-04-04 12:00:00 13.5 8 Nordeste 24 Nordeste 0 -- -- 40
2019-04-04 11:00:00 12.4 7 Norte 24 Nordeste 0 -- -- 43
2019-04-04 10:00:00 11.4 5 Noroeste 20 Noroeste 0 -- -- 43
2019-04-04 09:00:00 8.7 12 Noroeste 38 Norte 0 -- -- 49
2019-04-04 08:00:00 7.1 11 Noroeste 36 Norte 0 -- -- 53
2019-04-04 07:00:00 7 16 Noroeste 33 Noroeste 0 -- -- 51
2019-04-04 06:00:00 6.9 11 Noroeste 32 Noroeste 0 -- -- 50
2019-04-04 05:00:00 7.3 9 Noroeste 42 Noroeste 0 -- -- 52
2019-04-04 04:00:00 8.1 11 Noroeste 30 Noroeste 0 -- -- 49
2019-04-04 03:00:00 8.4 6 Oeste 16 Norte 0 -- -- 54
2019-04-04 02:00:00 8.6 4 Noroeste 21 Noroeste 0 -- -- 50
2019-04-04 01:00:00 9.7 5 Oeste 15 Sudoeste 0 -- -- 48
2019-04-04 00:00:00 10.1 6 Oeste 18 Oeste 0 -- -- 55
2019-04-03 23:00:00 9.9 3 Noroeste 17 Oeste 0 -- -- 65
2019-04-03 22:00:00 10.2 9 Noroeste 25 Oeste 0 -- -- 71
2019-04-03 21:00:00 10.3 2 Noroeste 5 Noroeste 0.2 -- -- 85
2019-04-03 20:00:00 10.8 4 Noroeste 9 Noroeste 1.2 -- -- 80
2019-04-03 19:00:00 12.6 3 Noroeste 15 Norte 0 -- -- 70
2019-04-03 18:00:00 14.3 4 Norte 12 Noroeste 0.4 -- -- 67
2019-04-03 17:00:00 15 8 Noroeste 24 Oeste 0 -- -- 65
2019-04-03 16:00:00 15.9 9 Sudeste 14 Sudeste 0 -- -- 73
2019-04-03 15:00:00 17.2 9 Sudeste 16 Sudeste 0 -- -- 68
2019-04-03 14:00:00 18.5 5 Oeste 13 Noroeste 0 -- -- 50
2019-04-03 13:00:00 17.9 5 Sudeste 12 Sudeste 0 -- -- 65
2019-04-03 12:00:00 15.5 3 Oeste 9 Noroeste 0 -- -- 75
2019-04-03 11:00:00 14.8 3 Sur 10 Sudeste 0 -- -- 82
2019-04-03 10:00:00 15 4 Sudoeste 8 Sudoeste 0 -- -- 81
2019-04-03 09:00:00 13 0 Calma 8 Noroeste 0 -- -- 89
2019-04-03 08:00:00 12.6 3 Noroeste 6 Noroeste 0 -- -- 90
2019-04-03 07:00:00 12.5 2 Este 5 Noroeste 0 -- -- 91
2019-04-03 06:00:00 12.3 2 Noroeste 7 Norte 0 -- -- 91
2019-04-03 05:00:00 12.9 0 Calma 6 Este 0 -- -- 91
2019-04-03 04:00:00 13 2 Nordeste 13 Este 0 -- -- 91
2019-04-03 03:00:00 13.3 4 Este 10 Este 0 -- -- 91
2019-04-03 02:00:00 13.1 3 Este 12 Este 0 -- -- 92
2019-04-03 01:00:00 13 4 Este 10 Este 0 -- -- 93
2019-04-03 00:00:00 12.8 3 Este 9 Nordeste 0 -- -- 92
2019-04-02 23:00:00 13.4 4 Nordeste 9 Este 0 -- -- 91
2019-04-02 22:00:00 14 4 Este 10 Este 0 -- -- 89
2019-04-02 21:00:00 14.4 6 Este 12 Este 0 -- -- 87
2019-04-02 20:00:00 15.4 4 Sudeste 11 Sudeste 0 -- -- 80
2019-04-02 19:00:00 16.6 5 Sudoeste 15 Sudeste 0 -- -- 74
2019-04-02 18:00:00 17.1 7 Sudoeste 23 Oeste 0 -- -- 74
2019-04-02 17:00:00 17.4 10 Sudoeste 21 Sudoeste 0 -- -- 73
2019-04-02 16:00:00 16.9 9 Sur 29 Sudoeste 0 -- -- 74
2019-04-02 15:00:00 17.9 8 Sur 22 Oeste 0 -- -- 67
2019-04-02 14:00:00 18.8 12 Sudoeste 22 Oeste 0 -- -- 59
2019-04-02 13:00:00 16.7 6 Sur 15 Sudoeste 0 -- -- 69
2019-04-02 12:00:00 16.6 6 Sudoeste 18 Sudoeste 0 -- -- 64
2019-04-02 11:00:00 16.9 5 Sur 13 Sudeste 0 -- -- 62
2019-04-02 10:00:00 14.9 3 Sudeste 9 Este 0 -- -- 68
2019-04-02 09:00:00 11.9 3 Noroeste 6 Noroeste 0 -- -- 74
2019-04-02 08:00:00 11.4 0 Calma 5 Noroeste 0 -- -- 77
2019-04-02 07:00:00 11.2 2 Norte 5 Noroeste 0 -- -- 83
2019-04-02 06:00:00 12 0 Calma 4 Norte 0 -- -- 81
2019-04-02 05:00:00 12.1 0 Calma 4 Noroeste 0 -- -- 84
2019-04-02 04:00:00 12.4 2 Noroeste 5 Oeste 0 -- -- 84
2019-04-02 03:00:00 12.4 0 Calma 2 Norte 0 -- -- 84
2019-04-02 02:00:00 12.7 0 Calma 5 Oeste 0 -- -- 85
2019-04-02 01:00:00 13.1 2 Noroeste 8 Oeste 0 -- -- 84
2019-04-02 00:00:00 13.3 2 Sudoeste 8 Sudoeste 0 -- -- 85
2019-04-01 23:00:00 13.6 3 Oeste 9 Oeste 0 -- -- 83
2019-04-01 22:00:00 13.9 4 Sudoeste 8 Sudoeste 0 -- -- 81
2019-04-01 21:00:00 14.1 3 Sudeste 9 Sudoeste 0 -- -- 77
2019-04-01 20:00:00 14.4 4 Sur 12 Sudoeste 0 -- -- 75
2019-04-01 19:00:00 15.5 6 Sudoeste 13 Sudoeste 0 -- -- 58
2019-04-01 18:00:00 16.5 7 Sudoeste 18 Sudeste 0 -- -- 66
2019-04-01 17:00:00 15.5 6 Sur 16 Sudoeste 0 -- -- 64
2019-04-01 16:00:00 15.6 7 Sur 18 Este 0 -- -- 64
2019-04-01 15:00:00 15.9 8 Sudeste 15 Sudeste 0 -- -- 56
2019-04-01 14:00:00 17 8 Sur 20 Sudeste 0 -- -- 55
2019-04-01 13:00:00 17.3 8 Sur 16 Sudeste 0 -- -- 47
2019-04-01 12:00:00 17.4 8 Sudeste 15 Sudeste 0 -- -- 48
2019-04-01 11:00:00 16 5 Sudeste 9 Sur 0 -- -- 46
2019-04-01 10:00:00 14.2 0 Calma 6 Este 0 -- -- 52
2019-04-01 09:00:00 12.2 0 Calma 6 Nordeste 0 -- -- 57
2019-04-01 08:00:00 11.7 2 Este 11 Nordeste 0 -- -- 57
2019-04-01 07:00:00 11.9 4 Norte 14 Norte 0 -- -- 55
2019-04-01 06:00:00 12.1 5 Norte 14 Norte 0 -- -- 55
2019-04-01 05:00:00 12 4 Norte 14 Norte 0 -- -- 57
2019-04-01 04:00:00 11.9 0 Calma 8 Nordeste 0 -- -- 64
2019-04-01 03:00:00 12.3 3 Norte 9 Norte 0 -- -- 62
2019-04-01 02:00:00 12.4 0 Calma 7 Noroeste 0 -- -- 77
2019-04-01 01:00:00 12.8 3 Norte 7 Norte 0 -- -- 69
2019-04-01 00:00:00 13.1 0 Calma 5 Nordeste 0 -- -- 68
2019-03-31 23:00:00 13.5 2 Nordeste 9 Este 0 -- -- 67
2019-03-31 22:00:00 13.8 3 Este 11 Nordeste 0 -- -- 74
2019-03-31 21:00:00 14 6 Este 20 Este 0 -- -- 75
2019-03-31 20:00:00 14.1 9 Este 28 Este 0 -- -- 70
2019-03-31 19:00:00 14.1 14 Este 30 Este 0 -- -- 78
2019-03-31 18:00:00 15 14 Este 32 Este 0 -- -- 73
2019-03-31 17:00:00 15.4 14 Sudeste 28 Sudeste 0 -- -- 71
2019-03-31 16:00:00 15.4 12 Este 27 Este 0 -- -- 70
2019-03-31 15:00:00 15.3 11 Sudeste 25 Sudeste 0 -- -- 69
2019-03-31 14:00:00 15.3 7 Sudeste 19 Sudeste 0 -- -- 66
2019-03-31 13:00:00 14.7 10 Este 21 Sudeste 0 -- -- 69
2019-03-31 12:00:00 14.7 6 Nordeste 18 Este 0 -- -- 68
2019-03-31 11:00:00 13.3 2 Este 14 Nordeste 0 -- -- 71
2019-03-31 10:00:00 12.6 5 Nordeste 14 Norte 0 -- -- 71
2019-03-31 09:00:00 12.2 4 Norte 13 Norte 0 -- -- 72
2019-03-31 08:00:00 11.7 4 Norte 12 Nordeste 0 -- -- 73
2019-03-31 07:00:00 10.7 4 Norte 8 Norte 0 -- -- 76
2019-03-31 06:00:00 9.7 5 Noroeste 10 Noroeste 0 -- -- 77
2019-03-31 05:00:00 9.3 5 Noroeste 11 Noroeste 0 -- -- 78
2019-03-31 03:00:00 10 0 Calma 9 Nordeste 0 -- -- 79
2019-03-31 01:00:00 10.5 2 Nordeste 13 Norte 0 -- -- 79
2019-03-31 00:00:00 11 4 Nordeste 13 Nordeste 0 -- -- 77
2019-03-30 23:00:00 11.5 3 Norte 8 Norte 0 -- -- 76
2019-03-30 22:00:00 11.8 0 Calma 7 Nordeste 0 -- -- 76
2019-03-30 21:00:00 12.1 0 Calma 10 Nordeste 0 -- -- 75
2019-03-30 20:00:00 12.9 4 Este 14 Este 0 -- -- 72
2019-03-30 19:00:00 13.6 8 Este 18 Este 0 -- -- 67
2019-03-30 18:00:00 14.8 10 Este 21 Este 0 -- -- 66
2019-03-30 17:00:00 15.6 12 Sudeste 24 Sudeste 0 -- -- 65
2019-03-30 16:00:00 16.1 14 Sudeste 28 Sudeste 0 -- -- 63
2019-03-30 15:00:00 16.4 13 Este 24 Sudeste 0 -- -- 62
2019-03-30 14:00:00 15.6 13 Sudeste 22 Sur 0 -- -- 62
2019-03-30 13:00:00 15.9 12 Sudeste 24 Nordeste 0 -- -- 61
2019-03-30 12:00:00 15.8 12 Sudeste 22 Este 0 -- -- 59
2019-03-30 11:00:00 15.3 10 Sudeste 22 Este 0 -- -- 56
2019-03-30 10:00:00 14.7 9 Sudeste 16 Este 0 -- -- 59
2019-03-30 09:00:00 13.5 4 Nordeste 11 Nordeste 0 -- -- 62
2019-03-30 08:00:00 9 2 Noroeste 6 Noroeste 0 -- -- 83
2019-03-30 07:00:00 6.6 0 Calma 3 Noroeste 0 -- -- 88
2019-03-30 06:00:00 7 0 Calma 4 Nordeste 0 -- -- 86
2019-03-30 05:00:00 7.7 0 Calma 4 Norte 0 -- -- 84
2019-03-30 04:00:00 8.1 0 Calma 4 Nordeste 0 -- -- 83
2019-03-30 03:00:00 7.6 0 Calma 4 Este 0 -- -- 82
2019-03-30 02:00:00 8.7 2 Este 7 Este 0 -- -- 81
2019-03-30 01:00:00 8.8 2 Este 4 Este 0 -- -- 82
2019-03-30 00:00:00 9.6 0 Calma 3 Este 0 -- -- 81
2019-03-29 23:00:00 10.1 0 Calma 4 Este 0 -- -- 80
2019-03-29 22:00:00 11 0 Calma 5 Nordeste 0 -- -- 80
2019-03-29 21:00:00 11.8 2 Este 5 Este 0 -- -- 76
2019-03-29 20:00:00 12.8 3 Este 12 Este 0 -- -- 70
2019-03-29 19:00:00 13.9 6 Este 16 Sudeste 0 -- -- 67
2019-03-29 18:00:00 15.1 10 Este 19 Este 0 -- -- 60
2019-03-29 17:00:00 16.3 9 Sudeste 21 Sudeste 0 -- -- 53
2019-03-29 16:00:00 16.5 11 Sudeste 19 Sudeste 0 -- -- 58
2019-03-29 15:00:00 16.7 10 Sudeste 19 Sudeste 0 -- -- 60
2019-03-29 14:00:00 16.5 10 Sur 22 Sudeste 0 -- -- 63
2019-03-29 13:00:00 16.3 10 Sudeste 20 Sudeste 0 -- -- 64
2019-03-29 12:00:00 16.5 9 Sudeste 17 Sur 0 -- -- 56
2019-03-29 11:00:00 16.3 8 Sudeste 15 Sudeste 0 -- -- 52
2019-03-29 10:00:00 15 8 Sudeste 14 Este 0 -- -- 58
2019-03-29 09:00:00 13.6 6 Sudeste 10 Sudeste 0 -- -- 55
2019-03-29 08:00:00 9.3 4 Este 7 Este 0 -- -- 62
2019-03-29 07:00:00 7.5 2 Norte 8 Nordeste 0 -- -- 69
2019-03-29 06:00:00 7.5 2 Noroeste 6 Noroeste 0 -- -- 78
2019-03-29 05:00:00 7.2 0 Calma 6 Noroeste 0 -- -- 83
2019-03-29 04:00:00 8.1 2 Noroeste 6 Norte 0 -- -- 81
2019-03-29 03:00:00 8.9 3 Noroeste 10 Noroeste 0 -- -- 80
2019-03-29 02:00:00 9 5 Noroeste 12 Norte 0 -- -- 84
2019-03-29 01:00:00 8.7 3 Noroeste 5 Noroeste 0 -- -- 83
2019-03-29 00:00:00 9.4 0 Calma 5 Noroeste 0 -- -- 83
2019-03-28 23:00:00 10.7 0 Calma 3 Este 0 -- -- 80
2019-03-28 22:00:00 11.5 0 Calma 5 Este 0 -- -- 75
2019-03-28 21:00:00 12.9 3 Sudeste 10 Sudeste 0 -- -- 71
2019-03-28 20:00:00 13.4 4 Sur 11 Sudoeste 0 -- -- 70
2019-03-28 19:00:00 14 6 Sur 15 Sudoeste 0 -- -- 64
2019-03-28 18:00:00 15 8 Sudeste 17 Sudeste 0 -- -- 59
2019-03-28 17:00:00 16.1 9 Sudeste 19 Este 0 -- -- 54
2019-03-28 16:00:00 16.7 9 Sudeste 19 Este 0 -- -- 46
2019-03-28 15:00:00 16.6 13 Sudeste 23 Este 0 -- -- 46
2019-03-28 14:00:00 17 12 Sudeste 24 Este 0 -- -- 42
2019-03-28 13:00:00 16.8 14 Sudeste 21 Sudeste 0 -- -- 45
2019-03-28 12:00:00 17.9 11 Sudeste 17 Sudeste 0 -- -- 36
2019-03-28 11:00:00 18.2 4 Sudoeste 10 Sudoeste 0 -- -- 32
2019-03-28 10:00:00 16.7 5 Noroeste 13 Noroeste 0 -- -- 41
2019-03-28 09:00:00 13 5 Noroeste 14 Noroeste 0 -- -- 53
2019-03-28 08:00:00 8.7 5 Noroeste 13 Noroeste 0 -- -- 70
2019-03-28 07:00:00 6.8 5 Norte 10 Noroeste 0 -- -- 83
2019-03-28 06:00:00 6.6 2 Noroeste 7 Noroeste 0 -- -- 87
2019-03-28 05:00:00 6.7 3 Noroeste 6 Noroeste 0 -- -- 85
2019-03-28 04:00:00 7.9 0 Calma 3 Este 0 -- -- 83
2019-03-28 03:00:00 8.2 0 Calma 4 Norte 0 -- -- 83
2019-03-28 02:00:00 8.4 2 Norte 9 Noroeste 0 -- -- 78
2019-03-28 01:00:00 9.7 4 Noroeste 9 Noroeste 0 -- -- 75
2019-03-28 00:00:00 10 5 Noroeste 8 Noroeste 0 -- -- 74
2019-03-27 23:00:00 11.2 3 Noroeste 5 Sudoeste 0 -- -- 69
2019-03-27 22:00:00 13 3 Sur 11 Sudeste 0 -- -- 64
2019-03-27 21:00:00 13.1 6 Sudeste 10 Sur 0 -- -- 63
2019-03-27 20:00:00 13.4 6 Sudeste 13 Este 0 -- -- 62
2019-03-27 19:00:00 13.9 4 Sur 17 Sudoeste 0 -- -- 59
2019-03-27 18:00:00 15 10 Sudoeste 21 Sudoeste 0 -- -- 53
2019-03-27 17:00:00 15.8 10 Sur 25 Sudoeste 0 -- -- 56
2019-03-27 16:00:00 17.2 8 Sur 25 Sudoeste 0 -- -- 48
2019-03-27 15:00:00 16.8 12 Sur 26 Sudeste 0 -- -- 46
2019-03-27 14:00:00 18.5 8 Sur 25 Sudoeste 0 -- -- 39
2019-03-27 13:00:00 18.7 8 Sudoeste 19 Sudoeste 0 -- -- 38
2019-03-27 12:00:00 17.6 8 Sudeste 17 Sudeste 0 -- -- 41
2019-03-27 11:00:00 17.9 5 Oeste 14 Oeste 0 -- -- 35
2019-03-27 10:00:00 15.8 3 Oeste 12 Noroeste 0 -- -- 39
2019-03-27 09:00:00 12.8 5 Noroeste 12 Norte 0 -- -- 49
2019-03-27 08:00:00 9.1 3 Norte 12 Norte 0 -- -- 59
2019-03-27 07:00:00 6.9 3 Norte 9 Norte 0 -- -- 69
2019-03-27 06:00:00 7.3 0 Calma 9 Nordeste 0 -- -- 67
2019-03-27 05:00:00 8.3 5 Norte 13 Norte 0 -- -- 67
2019-03-27 04:00:00 8.3 4 Norte 13 Norte 0 -- -- 68
2019-03-27 03:00:00 8.4 3 Norte 13 Noroeste 0 -- -- 69
2019-03-27 02:00:00 8.5 3 Noroeste 8 Oeste 0 -- -- 71
2019-03-27 01:00:00 8.7 2 Noroeste 6 Noroeste 0 -- -- 70
2019-03-27 00:00:00 9.2 2 Noroeste 7 Noroeste 0 -- -- 67
2019-03-26 23:00:00 10.1 3 Noroeste 7 Noroeste 0 -- -- 63
2019-03-26 22:00:00 11.8 4 Noroeste 8 Sudoeste 0 -- -- 58
2019-03-26 21:00:00 13.1 4 Sudoeste 13 Sudoeste 0 -- -- 54
2019-03-26 20:00:00 13.5 5 Sur 12 Sudeste 0 -- -- 52
2019-03-26 19:00:00 13.9 7 Sudeste 21 Sur 0 -- -- 49
2019-03-26 18:00:00 14.8 10 Sudeste 26 Este 0 -- -- 47
2019-03-26 17:00:00 15.8 13 Este 36 Este 0 -- -- 46
2019-03-26 16:00:00 17.6 18 Sudeste 35 Sudeste 0 -- -- 47
2019-03-26 15:00:00 20.2 10 Sur 27 Sur 0 -- -- 25
2019-03-26 14:00:00 20.3 13 Sudoeste 30 Sudoeste 0 -- -- 26
2019-03-26 13:00:00 20.9 11 Sudoeste 23 Sudoeste 0 -- -- 26
2019-03-26 12:00:00 21 5 Noroeste 19 Noroeste 0 -- -- 18
2019-03-26 11:00:00 19.4 8 Norte 20 Noroeste 0 -- -- 25
2019-03-26 10:00:00 17.7 8 Norte 21 Noroeste 0 -- -- 28
2019-03-26 09:00:00 14.2 6 Norte 23 Noroeste 0 -- -- 40
2019-03-26 08:00:00 10.4 7 Norte 17 Norte 0 -- -- 53
2019-03-26 07:00:00 10.2 8 Norte 17 Norte 0 -- -- 54
2019-03-26 06:00:00 9 6 Norte 15 Noroeste 0 -- -- 60
2019-03-26 05:00:00 7.9 0 Calma 10 Oeste 0 -- -- 64
2019-03-26 04:00:00 9.2 3 Noroeste 12 Noroeste 0 -- -- 60
2019-03-26 03:00:00 10.3 5 Noroeste 12 Noroeste 0 -- -- 57
2019-03-26 02:00:00 11.1 6 Noroeste 12 Noroeste 0 -- -- 55
2019-03-26 01:00:00 12.2 5 Noroeste 18 Noroeste 0 -- -- 52
2019-03-26 00:00:00 13.4 8 Noroeste 21 Oeste 0 -- -- 48
2019-03-25 23:00:00 14.8 7 Noroeste 16 Noroeste 0 -- -- 42
2019-03-25 22:00:00 15.8 5 Noroeste 16 Oeste 0 -- -- 39
2019-03-25 21:00:00 16.9 5 Oeste 20 Oeste 0 -- -- 34
2019-03-25 20:00:00 17.6 6 Oeste 23 Oeste 0 -- -- 36
2019-03-25 19:00:00 18 8 Oeste 31 Oeste 0 -- -- 46
2019-03-25 18:00:00 18.8 12 Oeste 28 Sudoeste 0 -- -- 46
2019-03-25 17:00:00 19.9 12 Oeste 29 Oeste 0 -- -- 54
2019-03-25 16:00:00 24.3 8 Oeste 29 Oeste 0 -- -- 31
2019-03-25 15:00:00 24.1 11 Oeste 33 Oeste 0 -- -- 31
2019-03-25 14:00:00 23.5 12 Oeste 28 Oeste 0 -- -- 32
2019-03-25 13:00:00 23.7 10 Noroeste 29 Noroeste 0 -- -- 32
2019-03-25 12:00:00 22.4 9 Oeste 27 Oeste 0 -- -- 32
2019-03-25 11:00:00 22 7 Noroeste 17 Oeste 0 -- -- 32
2019-03-25 10:00:00 19.4 3 Norte 8 Noroeste 0 -- -- 36
2019-03-25 09:00:00 16.7 0 Calma 6 Este 0 -- -- 42
2019-03-25 08:00:00 12.8 0 Calma 7 Norte 0 -- -- 53
2019-03-25 07:00:00 10.6 4 Noroeste 9 Noroeste 0 -- -- 54
2019-03-25 06:00:00 10.4 2 Norte 11 Noroeste 0 -- -- 54
2019-03-25 05:00:00 10.7 7 Noroeste 10 Noroeste 0 -- -- 52
2019-03-25 04:00:00 11.4 3 Noroeste 9 Noroeste 0 -- -- 50
2019-03-25 03:00:00 13.1 6 Noroeste 12 Norte 0 -- -- 45
2019-03-25 02:00:00 12.4 4 Noroeste 6 Noroeste 0 -- -- 49
2019-03-25 01:00:00 14 4 Noroeste 14 Norte 0 -- -- 46
2019-03-25 00:00:00 13.6 6 Noroeste 13 Norte 0 -- -- 48